Loisir ou Compétition : Rejoignez un Club de la Fédération

Résultats

CHAMPIONNATS DE FRANCE U16 1ERE ETAPE

AUTRANS

FS Dames

Jury de Compétition

Délégué Technique :
FROSSARD CHRISTIAN (SA)
D.T. Adjoint :
GAILLARD LILIAN (DA)
Dir. Epreuve :
HUARD ANAEL (MB)

Caractéristiques de la Piste

Piste :
AUTRANS VILLAGE SITE COMPETITI
Distance :
5 km
Point Haut :
 
Point Bas :
 
Montée Tot. :
 
Montée Max. :
 
Homologation :
2016-62-1

Pénalité Appliquée :
100.0000
Coefficient :
800

Catégorie :
U16
Style :
C
Clt Dos Clt/Cat Code An Nom Prénom Com Club Temps Ecart Points
Classés
1 65 1/U16 FFS2676094 2003 SCHWEITZER COLINE MV SC RANSPACH 17:25.9 00:00.0 100.00
2 83 2/U16 FFS2661275 2003 PONTA PAOLA MV VAGNEY ROCHE 17:59.6 00:33.7 125.78
3 107 3/U16 FFS2671780 2002 DIDIERLAURENT CLEMENCE MV VAGNEY ROCHE 18:00.5 00:34.6 126.47
4 101 4/U16 FFS2660732 2003 COUPAT LIV FZ BESSAT S HIV 18:04.8 00:38.9 129.75
5 115 5/U16 FFS2644719 2002 RICHON CAPUCINE SA CS LA FECLAZ 18:10.4 00:44.5 134.04
6 116 6/U16 FFS2660755 2002 CLOETENS MAYA DA GUC GRENOBLE 18:10.5 00:44.6 134.11
7 118 7/U16 FFS2670898 2002 PIERREL JULIE MB SC GD BORNAN 18:14.2 00:48.3 136.94
8 82 8/U16 FFS2671634 2003 GILET AMELIE MV VAGNEY ROCHE 18:23.0 00:57.1 143.68
9 114 9/U16 FFS2665303 2002 MICHELON OCEANE SA BAUGES S.N 18:32.4 01:06.5 150.87
10 117 10/U16 FFS2667044 2002 VEYRE MAELLE AP MTGVE V.CLAR 18:39.2 01:13.3 156.07
11 105 11/U16 FFS2672086 2002 JAEGGY EMILIE MV SC RANSPACH 18:42.5 01:16.6 158.59
12 111 12/U16 FFS2665310 2002 MUNIER ELODIE SA MONOLITHE SF 18:43.4 01:17.5 159.28
13 110 13/U16 FFS2654839 2002 GREAU ALIZEE LY SC BRENOD 18:58.1 01:32.2 170.52
14 94 14/U16 FFS2671448 2002 PATUREL DORINE MB SCNP ROCHOIS 19:05.3 01:39.4 176.03
15 81 15/U16 FFS2655708 2002 NIOGRET AGATHE LY CS VALROMEY 19:06.4 01:40.5 176.87
16 91 16/U16 FFS2670556 2002 PENDRY SHAWNA PE SC FTROMEUP2 19:15.9 01:50.0 184.14
17 20 17/U16 FFS2659648 2003 SARRAT MANON SA SC BOZEL 19:18.4 01:52.5 186.05
18 104 18/U16 FFS2676452 2002 PAGNIER CLOE MJ CHAUX NEUVE 19:25.0 01:59.1 191.10
19 6 19/U16 FFS2670580 2003 BESSON LEONIE AP AS EDELWEISS 19:27.8 02:01.9 193.24
20 97 20/U16 FFS2660687 2002 GRUNEWALD ELEONORE DA VERCORS SKF 19:31.0 02:05.1 195.69
21 93 21/U16 FFS2670897 2002 FAVRE BONVIN ZOE MB SC GD BORNAN 19:31.4 02:05.5 195.99
22 84 22/U16 FFS2682651 2002 MORRAL FERANDIS MARIONA PE SC FTROMEUP2 19:32.7 02:06.8 196.99
23 58 23/U16 FFS2671187 2002 LAHEURTE PERRINE MJ OYE-PALLET 19:37.5 02:11.6 200.66
24 95 24/U16 FFS2652071 2002 RICHARD JEANNE MB LES GETS S.C 19:38.4 02:12.5 201.35
24 98 24/U16 FFS2665498 2002 ROCHE LUDMILLA AP AS EDELWEISS 19:38.4 02:12.5 201.35
26 27 26/U16 FFS2657041 2003 JAY CLOE SA SC MENUIRES 19:40.3 02:14.4 202.80
27 103 27/U16 FFS2676611 2002 COURVOISIER CELIA MJ SC MONT NOIR 19:44.1 02:18.2 205.71
28 99 28/U16 FFS2665748 2002 LAURENCE COLINE MJ CSR PONTARLI 19:47.7 02:21.8 208.46
29 60 29/U16 FFS2654674 2003 FILLIARD PEMA DA CO 7 LAUX GR 19:48.0 02:22.1 208.69
30 96 30/U16 FFS2670906 2002 PLACE ISELINE MB SC GD BORNAN 19:52.7 02:26.8 212.29
31 112 31/U16 FFS2659929 2002 CERDAN ANNOUK LY US CORMARANC 19:54.1 02:28.2 213.36
32 76 32/U16 FFS2662969 2003 GILBERT JEANSELME LOLA DA CS VILLARD 19:55.6 02:29.7 214.50
33 78 33/U16 FFS2671450 2002 SYLVESTRE BARON CLAIRE MB SCNP ROCHOIS 19:56.3 02:30.4 215.04
34 64 34/U16 FFS2670390 2002 NEUBURGER MANON DA SNB CHAMROUS 19:56.7 02:30.8 215.35
35 15 35/U16 FFS2657793 2003 ZANELLATO ELODIE SA CS VAL CENIS 19:56.8 02:30.9 215.42
36 63 36/U16 FFS2644094 2002 FORTINA NOEE MB SC CONTAMINE 19:57.5 02:31.6 215.96
37 46 37/U16 FFS2654667 2002 ANDREANI LUCILE DA CO 7 LAUX GR 20:02.8 02:36.9 220.01
37 72 37/U16 FFS2676469 2003 BONY VIOLETTE MB DRAGONS ANNY 20:02.8 02:36.9 220.01
39 85 39/U16 FFS2664568 2002 TRIBOULOT JEANNE MV BASS/RUPT SN 20:03.2 02:37.3 220.32
40 31 40/U16 FFS2652961 2003 MILLET SOLENE MB CHABLAIS NOR 20:04.4 02:38.5 221.24
41 106 41/U16 FFS2653209 2002 DUBOIS SALOMEE MJ SKI ROUSSES 20:05.0 02:39.1 221.69
42 48 42/U16 FFS2675691 2003 LEBAY CAROLINE MB PRAZ LYS-SOM 20:07.4 02:41.5 223.53
43 44 43/U16 FFS2670258 2002 CREDOZ ALICIA MB CS LA CLUSAZ 20:08.4 02:42.5 224.29
44 24 44/U16 FFS2665168 2003 RAOULT ZOE SA SC BOZEL 20:08.5 02:42.6 224.37
45 113 45/U16 FFS2668155 2002 SAVOIE LISA MJ HT JURA SKI 20:09.4 02:43.5 225.06
46 109 46/U16 FFS2677081 2002 JEANNIER LEONIE MJ SC VERRIERES 20:13.4 02:47.5 228.12
47 88 47/U16 FFS2654873 2002 GROSSET BOURBANGE LINA MB CS MEGEVE 20:13.9 02:48.0 228.50
48 10 48/U16 FFS2661267 2003 GROSJEAN MARINE MV GERARDMER SN 20:15.0 02:49.1 229.34
49 22 49/U16 FFS2652793 2002 PERRET MELISSA DA SNO 20:19.2 02:53.3 232.56
50 50 50/U16 FFS2670396 2002 GIGNOUX ANAIS DA SNB CHAMROUS 20:21.6 02:55.7 234.39
51 33 51/U16 FFS2671004 2003 PROCHET ALICE AP MTGVE V.CLAR 20:22.6 02:56.7 235.16
52 77 52/U16 FFS2649489 2002 GAILLARD MARGAUX DA SA MEAUDRAIS 20:25.9 03:00.0 237.68
53 75 53/U16 FFS2670359 2002 BENED CHLOE MB CHABLAIS NOR 20:26.1 03:00.2 237.83
54 21 54/U16 FFS2675807 2003 ARTAUD JADE PE SC FTROMEUP2 20:26.6 03:00.7 238.22
55 89 55/U16 FFS2671190 2002 BILLET EMMA MJ OYE-PALLET 20:29.0 03:03.1 240.05
56 52 56/U16 FFS2660685 2003 CUCCARO ROMANE DA VERCORS SKF 20:29.6 03:03.7 240.51
57 74 57/U16 FFS2665400 2002 BARDINET ROMANE DA SNO 20:29.9 03:04.0 240.74
58 5 58/U16 FFS2670453 2003 LANCHAIS MANON SA CS LA FECLAZ 20:31.5 03:05.6 241.96
59 3 59/U16 FFS2661315 2003 NAUCHE ELIANE SA CS LA FECLAZ 20:32.0 03:06.1 242.35
60 51 60/U16 FFS2670926 2003 GATIE EVA DA SN CHARTROUS 20:32.4 03:06.5 242.65
61 87 61/U16 FFS2655891 2002 GUYON ANNA MJ SKI ROUSSES 20:40.6 03:14.7 248.92
62 92 62/U16 FFS2671188 2002 PELLEGRINI AUGUSTINE MJ OYE-PALLET 20:41.0 03:15.1 249.23
63 42 63/U16 FFS2661021 2003 GOUY CELIA DA US AUTRANNAI 20:42.4 03:16.5 250.30
64 32 64/U16 FFS2656063 2003 JEFFERIES MOLLY MB LES GETS S.C 20:44.1 03:18.2 251.60
65 55 65/U16 FFS2675771 2003 DUPONT CHLOE MB DRAGONS ANNY 20:45.9 03:20.0 252.98
66 4 66/U16 FFS2680222 2003 POENSIN PAULINE MB CS CHAMONIX 20:46.0 03:20.1 253.05
67 26 67/U16 FFS2670253 2003 BIHLER NINA MB DRAGONS ANNY 20:48.1 03:22.2 254.66
68 47 68/U16 FFS2654373 2003 LAMBERT TALIA SA SC MERIBEL 20:48.3 03:22.4 254.81
69 102 69/U16 FFS2647512 2002 CHAPPAZ FELICIE MB CS LA CLUSAZ 20:49.8 03:23.9 255.96
70 54 70/U16 FFS2667595 2002 BUET CLEMENCE MJ SMBM/MORBIER 20:51.2 03:25.3 257.03
71 70 71/U16 FFS2661232 2002 JEANGEORGES ANAIS MV BASS/RUPT SN 20:52.1 03:26.2 257.72
72 67 72/U16 FFS2660923 2003 BESSIERE ELISE DA SNB CHAMROUS 20:52.6 03:26.7 258.10
73 108 73/U16 FFS2661517 2002 LAUTH EVA DA VERCORS SKF 20:56.0 03:30.1 260.70
74 62 74/U16 FFS2665288 2003 CHARVOLIN MARTHE DA SNB CHAMROUS 20:58.3 03:32.4 262.46
75 100 75/U16 FFS2664314 2002 BARON FIONA MJ VAL MORTEAU 20:59.2 03:33.3 263.15
76 57 76/U16 FFS2664469 2003 MARCINIAK JULIE MB CS MEGEVE 21:01.4 03:35.5 264.83
77 34 77/U16 FFS2676339 2003 NICOD MARION MJ OLYMP MT DOR 21:05.9 03:40.0 268.28
78 68 78/U16 FFS2670928 2003 SANCHEZ ANNA DA SN CHARTROUS 21:07.1 03:41.2 269.19
79 66 79/U16 FFS2666106 2002 VIGNEAU LUCIE MB CHABLAIS NOR 21:11.4 03:45.5 272.48
80 8 80/U16 FFS2660639 2003 GAILLARD JUSTINE DA SA MEAUDRAIS 21:11.7 03:45.8 272.71
81 25 81/U16 FFS2664336 2003 PRONO CLARA AP ORRES EMBRUN 21:12.8 03:46.9 273.55
82 49 82/U16 FFS2660067 2002 BAJARD SOLENE DA SNB CHAMROUS 21:13.2 03:47.3 273.86
83 28 83/U16 FFS2660998 2003 ALLARD ELEONORE MB CS MEGEVE 21:14.2 03:48.3 274.62
84 35 84/U16 FFS2644194 2002 PAVARANI JULIETTE MB SC CONTAMINE 21:14.9 03:49.0 275.16
85 30 85/U16 FFS2667667 2002 DEMBOURG LUCIE PE SC FTROMEUP2 21:19.5 03:53.6 278.68
86 43 86/U16 FFS2671189 2002 DESCOURVIERES EMILIE MJ OYE-PALLET 21:19.7 03:53.8 278.83
87 90 87/U16 FFS2664153 2002 DUBOIS LOUNA DA CS VILLARD 21:20.3 03:54.4 279.29
88 59 88/U16 FFS2670449 2003 BROUTIER AMELIE SA BAUGES S.N 21:20.5 03:54.6 279.44
89 71 89/U16 FFS2669082 2002 ELOY LILOU SA COURCHEVEL 21:22.3 03:56.4 280.82
90 14 90/U16 FFS2676089 2003 MAURY LISON MB CS CHAMONIX 21:29.0 04:03.1 285.95
91 86 91/U16 FFS2655742 2002 GAULIER JULIETTE DA CS VILLARD 21:30.3 04:04.4 286.94
92 61 92/U16 FFS2655269 2002 GELDHOF LAURANNE DA SN CHARTROUS 21:31.4 04:05.5 287.78
93 17 93/U16 FFS2676087 2003 CHAUSSIN THYLANE MB CS CHAMONIX 21:32.3 04:06.4 288.47
94 56 94/U16 FFS2670848 2002 SIMON ANTOINETTE MJ CSR PONTARLI 21:32.9 04:07.0 288.93
95 11 95/U16 FFS2681137 2003 CORBEFIN CAMILLE MJ BOIS D'AMONT 21:36.2 04:10.3 291.45
96 36 96/U16 FFS2656103 2002 MOREL EMMA AU PLOMB CANTAL 21:38.9 04:13.0 293.52
97 39 97/U16 FFS2670595 2003 COURTIEU MARGOT SA CS LA FECLAZ 21:53.0 04:27.1 304.30
98 80 98/U16 FFS2675805 2002 BESANCON ALICE MJ OLYMP MT DOR 22:00.3 04:34.4 309.89
99 40 99/U16 FFS2671406 2002 ECHE HELOISE MB CS CHAMONIX 22:11.6 04:45.7 318.53
100 79 100/U16 FFS2647938 2002 SILVE LOUNA AP ORRES EMBRUN 22:13.1 04:47.2 319.68
101 19 101/U16 FFS2686400 2003 SAMICA ZOE DA US AUTRANNAI 22:15.7 04:49.8 321.67
102 18 102/U16 FFS2660331 2003 GRASSET SIXTINE DA SN CHARTROUS 22:25.0 04:59.1 328.78
103 7 103/U16 FFS2681228 2003 STRIBY LEONIE AP AS EDELWEISS 22:29.0 05:03.1 331.84
104 38 104/U16 FFS2660383 2003 MACHUT PAULINE LY SC LE POIZAT 22:35.2 05:09.3 336.58
105 69 105/U16 FFS2656544 2002 CROS MARIE DA CS VILLARD 22:45.1 05:19.2 344.15
106 9 106/U16 FFS2670582 2003 COSTAGLIOLA CAMILLE AP AS EDELWEISS 23:09.6 05:43.7 362.89
107 16 107/U16 FFS2654445 2003 SOUVY LOU ANNE SA SC BOZEL 23:19.8 05:53.9 370.70
108 23 108/U16 FFS2659937 2002 MORETTI LOU ANNE DA US AUTRANNAI 23:27.7 06:01.8 376.74
109 13 109/U16 FFS2660152 2003 PIHEMA MAIA MB SC CONTAMINE 23:34.0 06:08.1 381.56
110 73 110/U16 FFS2654800 2002 MAGNIER LUCIE DA US AUTRANNAI 23:52.6 06:26.7 395.78
111 45 111/U16 FFS2657399 2002 LAMBRET CAMILLE DA CS VILLARD 24:37.6 07:11.7 430.20
112 29 112/U16 FFS2687189 2003 BONNARDEL LEA DA BOURG VAL SM 27:08.9 09:43.0 545.93
Abandons
1 FFS2670594 2003 CAVORET LILOU SA CS LA FECLAZ
37 FFS2671069 2002 BLONDAZ BLANDINE MB CS CHAMONIX
53 FFS2670559 2002 SAMSON EMMA PE SC FTROMEUP2
Non partants
2 FFS2676336 2003 TREAND EMMA MJ OLYMP MT DOR
12 FFS2663983 2003 VOLLUET EMILIE SA CS LA FECLAZ
41 FFS2661053 2002 VOUILLAMOZ MARIE MB SALLANCHES